createdAt,value
2023-03-11T00:02:17.214Z,77.20
2023-03-11T00:04:44.259Z,77.10
2023-03-11T00:07:11.412Z,76.80
2023-03-11T00:09:38.066Z,76.90
2023-03-11T00:12:08.044Z,77.00
2023-03-11T00:14:34.703Z,77.20
2023-03-11T00:17:01.253Z,77.30
2023-03-11T00:19:27.921Z,77.30
2023-03-11T00:21:55.425Z,77.30
2023-03-11T00:24:22.480Z,77.40
2023-03-11T00:26:49.018Z,77.30
2023-03-11T00:29:15.595Z,77.40
2023-03-11T00:31:42.137Z,77.40
2023-03-11T00:34:08.740Z,77.40
2023-03-11T00:36:35.402Z,77.40
2023-03-11T00:39:06.424Z,77.40
2023-03-11T00:41:36.015Z,77.40
2023-03-11T00:44:03.035Z,77.40
2023-03-11T00:46:31.006Z,77.40
2023-03-11T00:48:57.667Z,77.40
2023-03-11T00:51:24.254Z,77.40
2023-03-11T00:53:50.781Z,77.40
2023-03-11T00:56:17.427Z,77.40
2023-03-11T00:58:46.684Z,77.40
2023-03-11T01:01:14.825Z,77.40
2023-03-11T01:03:41.815Z,77.30
2023-03-11T01:06:08.507Z,77.40
2023-03-11T01:08:35.330Z,77.40
2023-03-11T01:11:02.699Z,77.40
2023-03-11T01:13:29.459Z,77.40
2023-03-11T01:15:56.565Z,77.40
2023-03-11T01:18:23.407Z,77.40
2023-03-11T01:20:50.496Z,77.40
2023-03-11T01:23:17.544Z,77.40
2023-03-11T01:25:44.243Z,77.40
2023-03-11T01:28:10.853Z,77.30
2023-03-11T01:30:38.482Z,77.20
2023-03-11T01:33:06.218Z,77.10
2023-03-11T01:35:35.600Z,76.60
2023-03-11T01:38:04.717Z,75.90
2023-03-11T01:40:33.867Z,75.80
2023-03-11T01:43:00.951Z,75.30
2023-03-11T01:46:02.736Z,74.50
2023-03-11T01:48:29.352Z,73.90
2023-03-11T01:50:58.666Z,74.30
2023-03-11T01:53:25.425Z,73.60
2023-03-11T01:55:54.475Z,73.30
2023-03-11T01:58:24.131Z,73.50
2023-03-11T02:00:50.732Z,73.10
2023-03-11T02:03:29.229Z,73.10
2023-03-11T02:05:56.702Z,73.60
2023-03-11T02:08:23.398Z,72.80
2023-03-11T02:10:50.376Z,73.40
2023-03-11T02:13:16.997Z,73.40
2023-03-11T02:15:44.189Z,73.00
2023-03-11T02:18:12.524Z,73.20
2023-03-11T02:20:42.037Z,73.50
2023-03-11T02:23:09.204Z,73.20
2023-03-11T02:25:39.516Z,73.50
2023-03-11T02:28:08.584Z,73.20
2023-03-11T02:30:35.789Z,73.30
2023-03-11T02:33:02.980Z,73.20
2023-03-11T02:35:32.278Z,73.40
2023-03-11T02:37:58.860Z,73.50
2023-03-11T02:40:29.803Z,73.60
2023-03-11T02:43:00.246Z,73.20
2023-03-11T02:45:27.105Z,73.40
2023-03-11T02:47:55.253Z,73.10
2023-03-11T02:50:24.591Z,72.90
2023-03-11T02:52:51.408Z,72.90
2023-03-11T02:55:20.585Z,72.60
2023-03-11T02:57:47.974Z,72.80
2023-03-11T03:00:16.668Z,72.80
2023-03-11T03:02:44.375Z,72.50
2023-03-11T03:05:13.471Z,72.50
2023-03-11T03:07:40.025Z,72.60
2023-03-11T03:10:08.114Z,72.80
2023-03-11T03:12:34.711Z,73.00
2023-03-11T03:15:03.490Z,73.20
2023-03-11T03:17:30.138Z,73.20
2023-03-11T03:19:56.692Z,73.40
2023-03-11T03:22:27.453Z,73.70
2023-03-11T03:24:56.201Z,73.90
2023-03-11T03:27:22.754Z,74.10
2023-03-11T03:29:49.404Z,74.30
2023-03-11T03:32:15.975Z,74.40
2023-03-11T03:34:45.018Z,74.10
2023-03-11T03:37:11.702Z,74.00
2023-03-11T03:39:38.223Z,74.00
2023-03-11T03:42:04.912Z,73.60
2023-03-11T03:44:33.608Z,73.50
2023-03-11T03:47:00.240Z,73.40
2023-03-11T03:49:29.000Z,73.50
2023-03-11T03:51:55.594Z,73.50
2023-03-11T03:54:22.139Z,73.60
2023-03-11T03:56:48.644Z,73.90
2023-03-11T03:59:15.210Z,74.10
2023-03-11T04:01:41.730Z,74.10
2023-03-11T04:04:13.215Z,74.00
2023-03-11T04:06:39.751Z,73.90
2023-03-11T04:09:06.361Z,73.90
2023-03-11T04:11:35.475Z,73.50
2023-03-11T04:14:04.954Z,73.20
2023-03-11T04:16:33.974Z,72.80
2023-03-11T04:19:00.551Z,72.90
2023-03-11T04:21:31.796Z,72.70
2023-03-11T04:23:58.469Z,73.00
2023-03-11T04:26:25.082Z,72.80
2023-03-11T04:28:51.630Z,72.50
2023-03-11T04:31:18.215Z,72.80
2023-03-11T04:33:44.834Z,72.70
2023-03-11T04:36:12.239Z,72.30
2023-03-11T04:38:38.981Z,72.60
2023-03-11T04:41:08.211Z,73.00
2023-03-11T04:43:35.014Z,72.90
2023-03-11T04:46:04.125Z,73.10
2023-03-11T04:48:30.735Z,73.20
2023-03-11T04:50:57.362Z,73.30
2023-03-11T04:53:24.142Z,73.30
2023-03-11T04:55:50.696Z,73.40
2023-03-11T04:58:19.417Z,73.40
2023-03-11T05:00:46.212Z,73.30
2023-03-11T05:03:12.806Z,73.70
2023-03-11T05:05:39.396Z,73.60
2023-03-11T05:08:06.066Z,73.60
2023-03-11T05:10:33.021Z,73.60
2023-03-11T05:12:59.629Z,73.70
2023-03-11T05:15:26.279Z,73.80
2023-03-11T05:17:52.883Z,73.80
2023-03-11T05:20:19.465Z,73.70
2023-03-11T05:22:46.047Z,73.60
2023-03-11T05:25:15.022Z,73.60
2023-03-11T05:27:41.627Z,73.70
2023-03-11T05:30:10.605Z,73.90
2023-03-11T05:32:37.194Z,74.10
2023-03-11T05:35:04.046Z,74.00
2023-03-11T05:37:31.891Z,74.40
2023-03-11T05:39:58.585Z,74.00
2023-03-11T05:42:25.151Z,74.70
2023-03-11T05:44:51.736Z,75.60
2023-03-11T05:47:20.746Z,75.60
2023-03-11T05:49:48.595Z,75.60
2023-03-11T05:52:15.390Z,76.00
2023-03-11T05:54:44.152Z,75.80
2023-03-11T05:57:10.808Z,75.60
2023-03-11T05:59:37.788Z,75.90
2023-03-11T06:02:04.584Z,76.20
2023-03-11T06:04:31.627Z,76.80
2023-03-11T06:07:00.606Z,76.90
2023-03-11T06:09:27.285Z,76.60
2023-03-11T06:11:53.822Z,76.80
2023-03-11T06:14:20.377Z,77.20
2023-03-11T06:16:49.424Z,77.20
2023-03-11T06:19:15.972Z,77.10
2023-03-11T06:21:42.554Z,77.00
2023-03-11T06:24:11.537Z,76.80
2023-03-11T06:26:38.057Z,76.60
2023-03-11T06:29:04.980Z,76.30
2023-03-11T06:31:34.078Z,75.80
2023-03-11T06:34:00.754Z,75.70
2023-03-11T06:36:27.393Z,75.50
2023-03-11T06:38:54.448Z,75.00
2023-03-11T06:41:23.409Z,74.80
2023-03-11T06:43:49.917Z,74.60
2023-03-11T06:46:25.422Z,74.10
2023-03-11T06:48:52.282Z,74.10
2023-03-11T06:51:19.584Z,73.70
2023-03-11T06:53:51.824Z,73.60
2023-03-11T06:56:18.888Z,73.50
2023-03-11T06:58:45.760Z,73.30
2023-03-11T07:01:15.358Z,73.00
2023-03-11T07:03:44.925Z,73.20
2023-03-11T07:06:14.494Z,73.70
2023-03-11T07:08:41.220Z,73.60
2023-03-11T07:11:07.778Z,73.70
2023-03-11T07:13:35.122Z,73.70
2023-03-11T07:16:02.472Z,74.00
2023-03-11T07:18:29.181Z,74.10
2023-03-11T07:20:58.003Z,74.20
2023-03-11T07:23:24.553Z,74.30
2023-03-11T07:25:52.800Z,74.40
2023-03-11T07:28:19.420Z,74.10
2023-03-11T07:30:46.524Z,74.00
2023-03-11T07:33:13.962Z,73.80
2023-03-11T07:35:40.652Z,73.50
2023-03-11T07:38:07.970Z,73.10
2023-03-11T07:40:34.842Z,72.80
2023-03-11T07:43:01.362Z,72.90
2023-03-11T07:45:27.912Z,72.50
2023-03-11T07:47:54.664Z,72.80
2023-03-11T07:50:24.026Z,72.90
2023-03-11T07:52:50.605Z,72.50
2023-03-11T07:55:17.238Z,72.60
2023-03-11T07:57:43.794Z,72.30
2023-03-11T08:00:10.620Z,71.60
2023-03-11T08:02:37.201Z,71.60
2023-03-11T08:05:06.440Z,71.00
2023-03-11T08:07:33.341Z,70.90
2023-03-11T08:10:00.027Z,70.50
2023-03-11T08:12:26.616Z,70.60
2023-03-11T08:14:53.210Z,70.90
2023-03-11T08:17:19.855Z,70.10
2023-03-11T08:19:46.410Z,69.80
2023-03-11T08:22:15.167Z,70.00
2023-03-11T08:24:42.500Z,70.20
2023-03-11T08:27:09.726Z,69.10
2023-03-11T08:29:36.374Z,68.10
2023-03-11T08:32:03.717Z,67.30
2023-03-11T08:34:30.317Z,66.10
2023-03-11T08:36:57.166Z,65.90
2023-03-11T08:39:24.024Z,64.90
2023-03-11T08:41:50.581Z,62.50
2023-03-11T08:44:17.206Z,62.00
2023-03-11T08:46:43.987Z,61.20
2023-03-11T08:49:10.667Z,62.60
2023-03-11T08:51:39.400Z,63.90
2023-03-11T08:54:06.027Z,63.20
2023-03-11T08:56:32.595Z,62.00
2023-03-11T08:58:59.378Z,58.60
2023-03-11T09:01:26.014Z,61.80
2023-03-11T09:03:52.593Z,60.00
2023-03-11T09:06:19.631Z,61.60
2023-03-11T09:08:46.668Z,60.40
2023-03-11T09:11:16.130Z,58.90
2023-03-11T09:13:45.167Z,61.20
2023-03-11T09:16:13.024Z,58.60
2023-03-11T09:18:39.784Z,58.80
2023-03-11T09:21:06.405Z,58.00
2023-03-11T09:23:35.598Z,59.70
2023-03-11T09:26:02.165Z,58.80
2023-03-11T09:28:28.727Z,59.90
2023-03-11T09:30:55.277Z,60.30
2023-03-11T09:33:21.800Z,59.60
2023-03-11T09:35:50.827Z,60.50
2023-03-11T09:38:17.413Z,59.80
2023-03-11T09:40:47.253Z,59.50
2023-03-11T09:43:35.193Z,58.80
2023-03-11T09:46:14.052Z,58.70
2023-03-11T09:48:44.596Z,60.70
2023-03-11T09:51:20.528Z,59.50
2023-03-11T09:53:50.454Z,61.60
2023-03-11T09:56:19.106Z,60.60
2023-03-11T09:58:48.378Z,61.40
2023-03-11T10:01:23.074Z,61.00
2023-03-11T10:03:52.862Z,61.10
2023-03-11T10:06:26.474Z,60.20
2023-03-11T10:09:13.304Z,59.20
2023-03-11T10:11:48.701Z,58.60
2023-03-11T10:14:15.262Z,57.60
2023-03-11T10:17:01.113Z,57.60
2023-03-11T10:19:46.579Z,58.30
2023-03-11T10:22:23.622Z,57.50
2023-03-11T10:25:11.238Z,56.30
2023-03-11T10:27:43.341Z,58.40
2023-03-11T10:30:15.164Z,55.40
2023-03-11T10:32:48.349Z,56.40
2023-03-11T10:35:14.988Z,56.00
2023-03-11T10:37:49.752Z,53.30
2023-03-11T10:40:24.000Z,55.60
2023-03-11T10:42:51.845Z,54.90
2023-03-11T10:45:20.848Z,54.70
2023-03-11T10:47:47.637Z,56.10
2023-03-11T10:50:20.367Z,57.80
2023-03-11T10:53:07.200Z,53.00
2023-03-11T10:55:34.397Z,55.70
2023-03-11T10:58:04.697Z,55.80
2023-03-11T11:00:31.893Z,54.50
2023-03-11T11:02:59.822Z,53.20
2023-03-11T11:05:32.613Z,51.60
2023-03-11T11:08:13.727Z,54.40
2023-03-11T11:11:00.336Z,55.20
2023-03-11T11:13:30.125Z,52.90
2023-03-11T11:15:58.578Z,54.60
2023-03-11T11:18:27.585Z,54.70
2023-03-11T11:20:54.088Z,53.50
2023-03-11T11:23:25.258Z,52.20
2023-03-11T11:25:59.251Z,54.90
2023-03-11T11:28:25.854Z,54.80
2023-03-11T11:30:52.437Z,55.20
2023-03-11T11:33:24.194Z,53.00
2023-03-11T11:35:59.145Z,53.80
2023-03-11T11:38:26.999Z,52.60
2023-03-11T11:40:54.850Z,52.80
2023-03-11T11:43:40.186Z,52.60
2023-03-11T11:46:12.949Z,49.30
2023-03-11T11:48:58.364Z,52.10
2023-03-11T11:51:36.551Z,52.10
2023-03-11T11:54:09.099Z,51.90
2023-03-11T11:56:35.776Z,50.50
2023-03-11T11:59:02.350Z,51.00
2023-03-11T12:01:47.649Z,51.00
2023-03-11T12:04:29.238Z,49.80
2023-03-11T12:06:55.851Z,51.70
2023-03-11T12:09:33.536Z,50.20
2023-03-11T12:12:24.123Z,51.80
2023-03-11T12:14:57.805Z,51.30
2023-03-11T12:17:25.464Z,52.20
2023-03-11T12:19:58.437Z,48.90
2023-03-11T12:22:25.017Z,51.00
2023-03-11T12:25:11.530Z,50.30
2023-03-11T12:27:54.574Z,51.80
2023-03-11T12:30:27.157Z,48.40
2023-03-11T12:32:59.023Z,48.30
2023-03-11T12:35:30.567Z,50.00
2023-03-11T12:38:15.563Z,48.70
2023-03-11T12:40:42.096Z,50.00
2023-03-11T12:43:23.985Z,49.80
2023-03-11T12:45:51.826Z,47.30
2023-03-11T12:48:27.428Z,50.60
2023-03-11T12:51:00.350Z,49.40
2023-03-11T12:53:46.883Z,49.90
2023-03-11T12:56:19.366Z,50.00
2023-03-11T12:59:02.868Z,47.60
2023-03-11T13:01:47.646Z,50.70
2023-03-11T13:04:32.776Z,50.80
2023-03-11T13:07:15.488Z,50.20
2023-03-11T13:09:42.122Z,46.00
2023-03-11T13:12:27.592Z,48.70
2023-03-11T13:15:19.888Z,50.50
2023-03-11T13:18:01.622Z,48.70
2023-03-11T13:20:47.743Z,49.80
2023-03-11T13:23:14.256Z,49.60
2023-03-11T13:25:41.801Z,51.40
2023-03-11T13:28:08.382Z,48.70
2023-03-11T13:30:38.816Z,48.40
2023-03-11T13:33:20.063Z,47.80
2023-03-11T13:36:10.103Z,45.40
2023-03-11T13:38:42.726Z,45.90
2023-03-11T13:41:35.613Z,51.50
2023-03-11T13:44:14.597Z,49.10
2023-03-11T13:46:42.195Z,48.80
2023-03-11T13:49:14.763Z,50.30
2023-03-11T13:51:43.511Z,50.30
2023-03-11T13:54:19.941Z,47.50
2023-03-11T13:56:51.095Z,45.80
2023-03-11T13:59:23.944Z,48.10
2023-03-11T14:01:51.795Z,50.80
2023-03-11T14:04:32.056Z,48.30
2023-03-11T14:06:59.273Z,47.90
2023-03-11T14:09:27.047Z,47.90
2023-03-11T14:11:54.597Z,50.90
2023-03-11T14:14:37.892Z,47.60
2023-03-11T14:17:08.608Z,48.80
2023-03-11T14:19:37.528Z,47.40
2023-03-11T14:22:07.766Z,49.40
2023-03-11T14:24:34.420Z,46.90
2023-03-11T14:27:02.809Z,49.20
2023-03-11T14:29:32.290Z,50.20
2023-03-11T14:31:58.965Z,48.60
2023-03-11T14:34:31.062Z,50.10
2023-03-11T14:36:58.952Z,51.30
2023-03-11T14:39:25.472Z,50.50
2023-03-11T14:41:53.669Z,49.30
2023-03-11T14:44:20.844Z,48.10
2023-03-11T14:46:47.900Z,50.10
2023-03-11T14:49:20.446Z,48.10
2023-03-11T14:51:49.240Z,48.00
2023-03-11T14:54:24.347Z,49.10
2023-03-11T14:56:54.694Z,47.60
2023-03-11T14:59:27.501Z,48.30
2023-03-11T15:01:56.423Z,48.10
2023-03-11T15:04:39.558Z,46.30
2023-03-11T15:07:06.183Z,49.40
2023-03-11T15:09:33.014Z,48.00
2023-03-11T15:12:00.842Z,49.60
2023-03-11T15:14:27.675Z,47.70
2023-03-11T15:16:55.457Z,48.50
2023-03-11T15:19:23.731Z,48.30
2023-03-11T15:21:51.714Z,49.70
2023-03-11T15:24:20.910Z,45.40
2023-03-11T15:26:56.119Z,49.10
2023-03-11T15:29:23.054Z,49.70
2023-03-11T15:31:49.968Z,49.40
2023-03-11T15:34:16.512Z,48.40
2023-03-11T15:36:52.789Z,48.20
2023-03-11T15:39:31.389Z,49.80
2023-03-11T15:42:04.471Z,48.00
2023-03-11T15:44:41.009Z,49.20
2023-03-11T15:47:14.856Z,47.00
2023-03-11T15:49:41.595Z,48.20
2023-03-11T15:52:08.413Z,49.50
2023-03-11T15:54:35.194Z,48.60
2023-03-11T15:57:04.589Z,48.50
2023-03-11T15:59:33.662Z,49.60
2023-03-11T16:02:00.228Z,48.60
2023-03-11T16:04:26.921Z,48.70
2023-03-11T16:07:06.905Z,50.20
2023-03-11T16:09:35.862Z,49.90
2023-03-11T16:12:02.736Z,48.70
2023-03-11T16:14:29.302Z,49.50
2023-03-11T16:16:55.962Z,47.70
2023-03-11T16:19:22.552Z,49.30
2023-03-11T16:21:50.450Z,48.80
2023-03-11T16:24:21.106Z,50.80
2023-03-11T16:26:48.020Z,52.00
2023-03-11T16:29:19.264Z,50.40
2023-03-11T16:31:46.445Z,50.60
2023-03-11T16:34:15.258Z,51.50
2023-03-11T16:36:41.851Z,50.80
2023-03-11T16:39:09.086Z,49.30
2023-03-11T16:41:44.631Z,52.50
2023-03-11T16:44:13.453Z,51.90
2023-03-11T16:46:40.103Z,51.60
2023-03-11T16:49:09.011Z,52.00
2023-03-11T16:51:35.627Z,50.90
2023-03-11T16:54:02.235Z,46.80
2023-03-11T16:56:29.006Z,50.40
2023-03-11T16:58:55.718Z,51.50
2023-03-11T17:01:22.697Z,50.40
2023-03-11T17:03:50.672Z,52.60
2023-03-11T17:06:19.307Z,52.80
2023-03-11T17:08:48.999Z,52.00
2023-03-11T17:11:16.707Z,52.90
2023-03-11T17:13:45.430Z,52.60
2023-03-11T17:16:12.369Z,51.00
2023-03-11T17:18:41.125Z,52.10
2023-03-11T17:21:12.652Z,53.10
2023-03-11T17:23:39.438Z,51.10
2023-03-11T17:26:14.440Z,54.00
2023-03-11T17:28:41.046Z,53.80
2023-03-11T17:31:11.750Z,51.40
2023-03-11T17:33:38.345Z,53.00
2023-03-11T17:36:06.284Z,52.70
2023-03-11T17:38:33.047Z,52.00
2023-03-11T17:40:59.606Z,53.50
2023-03-11T17:43:26.238Z,51.50
2023-03-11T17:45:53.704Z,50.80
2023-03-11T17:48:21.256Z,51.50
2023-03-11T17:50:47.851Z,52.80
2023-03-11T17:53:14.408Z,53.30
2023-03-11T17:55:41.003Z,53.80
2023-03-11T17:58:07.817Z,54.90
2023-03-11T18:00:34.443Z,55.50
2023-03-11T18:03:01.008Z,55.20
2023-03-11T18:05:27.592Z,54.70
2023-03-11T18:07:56.297Z,54.70
2023-03-11T18:10:22.896Z,54.70
2023-03-11T18:12:49.822Z,55.70
2023-03-11T18:15:19.320Z,55.30
2023-03-11T18:17:46.936Z,55.20
2023-03-11T18:20:13.855Z,55.70
2023-03-11T18:22:46.865Z,55.80
2023-03-11T18:25:15.934Z,55.60
2023-03-11T18:27:44.632Z,56.20
2023-03-11T18:30:11.515Z,55.90
2023-03-11T18:32:38.192Z,56.20
2023-03-11T18:35:04.977Z,56.60
2023-03-11T18:37:32.491Z,56.30
2023-03-11T18:39:59.283Z,56.00
2023-03-11T18:42:25.833Z,57.90
2023-03-11T18:44:54.514Z,56.40
2023-03-11T18:47:21.112Z,57.00
2023-03-11T18:49:47.732Z,56.90
2023-03-11T18:52:16.574Z,56.80
2023-03-11T18:54:43.157Z,56.50
2023-03-11T18:57:09.748Z,57.80
2023-03-11T18:59:36.317Z,57.80
2023-03-11T19:02:02.858Z,57.90
2023-03-11T19:04:29.548Z,58.40
2023-03-11T19:06:56.385Z,58.50
2023-03-11T19:09:27.920Z,58.40
2023-03-11T19:11:54.523Z,58.90
2023-03-11T19:14:21.058Z,59.10
2023-03-11T19:16:47.640Z,59.30
2023-03-11T19:19:16.397Z,59.40
2023-03-11T19:21:43.265Z,59.20
2023-03-11T19:24:09.939Z,59.60
2023-03-11T19:26:44.701Z,59.80
2023-03-11T19:29:12.756Z,59.70
2023-03-11T19:31:39.426Z,59.70
2023-03-11T19:34:06.038Z,59.50
2023-03-11T19:36:37.590Z,60.20
2023-03-11T19:39:06.470Z,59.70
2023-03-11T19:41:35.534Z,60.00
2023-03-11T19:44:04.022Z,60.80
2023-03-11T19:46:34.807Z,61.10
2023-03-11T19:49:04.276Z,60.60
2023-03-11T19:51:46.412Z,61.20
2023-03-11T19:54:16.327Z,61.30
2023-03-11T19:56:43.670Z,60.90
2023-03-11T19:59:12.748Z,61.10
2023-03-11T20:01:39.415Z,61.50
2023-03-11T20:04:06.139Z,62.30
2023-03-11T20:06:35.202Z,62.20
2023-03-11T20:09:05.888Z,62.40
2023-03-11T20:11:32.479Z,62.70
2023-03-11T20:13:59.045Z,62.60
2023-03-11T20:16:25.807Z,63.00
2023-03-11T20:18:52.906Z,63.10
2023-03-11T20:21:19.575Z,63.50
2023-03-11T20:23:46.265Z,63.30
2023-03-11T20:26:14.211Z,63.60
2023-03-11T20:28:41.012Z,63.70
2023-03-11T20:31:11.911Z,64.10
2023-03-11T20:33:38.645Z,64.40
2023-03-11T20:36:09.942Z,64.30
2023-03-11T20:38:36.625Z,64.70
2023-03-11T20:41:08.181Z,64.70
2023-03-11T20:43:38.059Z,64.30
2023-03-11T20:46:05.298Z,64.40
2023-03-11T20:48:32.060Z,64.60
2023-03-11T20:51:08.389Z,64.70
2023-03-11T20:53:34.939Z,64.50
2023-03-11T20:56:06.316Z,64.70
2023-03-11T20:58:32.842Z,65.00
2023-03-11T21:00:59.419Z,65.30
2023-03-11T21:03:26.149Z,65.40
2023-03-11T21:05:52.836Z,65.20
2023-03-11T21:08:19.438Z,65.20
2023-03-11T21:10:45.997Z,65.00
2023-03-11T21:13:13.013Z,65.30
2023-03-11T21:15:39.580Z,65.20
2023-03-11T21:18:06.984Z,65.30
2023-03-11T21:20:33.703Z,65.40
2023-03-11T21:23:00.394Z,65.60
2023-03-11T21:25:28.490Z,65.50
2023-03-11T21:27:55.101Z,66.10
2023-03-11T21:30:21.669Z,67.10
2023-03-11T21:32:48.559Z,66.90
2023-03-11T21:35:15.308Z,66.60
2023-03-11T21:37:44.162Z,66.50
2023-03-11T21:40:11.326Z,66.80
2023-03-11T21:42:38.062Z,67.60
2023-03-11T21:45:07.447Z,67.30
2023-03-11T21:47:37.668Z,67.60
2023-03-11T21:50:05.263Z,67.10
2023-03-11T21:52:31.908Z,66.80
2023-03-11T21:54:58.586Z,67.00
2023-03-11T21:57:27.471Z,67.10
2023-03-11T21:59:54.143Z,67.00
2023-03-11T22:02:20.785Z,66.70
2023-03-11T22:04:48.512Z,66.60
2023-03-11T22:07:15.283Z,66.40
2023-03-11T22:09:41.958Z,66.80
2023-03-11T22:12:08.620Z,66.90
2023-03-11T22:14:35.187Z,67.00
2023-03-11T22:17:02.067Z,67.60
2023-03-11T22:19:31.289Z,67.40
2023-03-11T22:21:58.025Z,67.30
2023-03-11T22:24:24.637Z,67.30
2023-03-11T22:26:51.278Z,67.80
2023-03-11T22:29:17.802Z,67.60
2023-03-11T22:31:44.393Z,67.70
2023-03-11T22:34:11.045Z,67.60
2023-03-11T22:36:37.599Z,68.10
2023-03-11T22:39:06.455Z,67.70
2023-03-11T22:41:33.217Z,67.50
2023-03-11T22:43:59.858Z,68.00
2023-03-11T22:46:26.615Z,68.20
2023-03-11T22:48:53.218Z,68.00
2023-03-11T22:51:19.872Z,67.80
2023-03-11T22:53:47.063Z,68.80
2023-03-11T22:56:14.416Z,68.60
2023-03-11T22:58:41.399Z,69.00
2023-03-11T23:01:08.272Z,68.00
2023-03-11T23:03:35.335Z,68.30
2023-03-11T23:06:02.916Z,68.90
2023-03-11T23:08:29.450Z,68.70
2023-03-11T23:10:56.021Z,69.90
2023-03-11T23:13:22.582Z,70.00
2023-03-11T23:15:49.135Z,69.90
2023-03-11T23:18:15.970Z,69.80
2023-03-11T23:20:43.043Z,70.50
2023-03-11T23:23:10.012Z,69.80
2023-03-11T23:25:38.961Z,70.50
2023-03-11T23:28:05.788Z,70.10
2023-03-11T23:30:32.574Z,69.80
2023-03-11T23:33:00.035Z,69.90
2023-03-11T23:35:26.845Z,70.20
2023-03-11T23:37:53.410Z,70.30
2023-03-11T23:40:20.042Z,71.10
2023-03-11T23:42:50.540Z,69.80
2023-03-11T23:45:19.606Z,69.50
2023-03-11T23:47:46.241Z,69.90
2023-03-11T23:50:12.893Z,70.00
2023-03-11T23:52:39.536Z,70.40
2023-03-11T23:55:06.394Z,70.30
2023-03-11T23:57:34.469Z,70.20
